createdAt,value
2018-04-08T15:30:14.539Z,3.07
2018-04-08T15:32:41.019Z,3.20
2018-04-08T15:35:08.145Z,3.10
2018-04-08T15:37:44.984Z,3.00
2018-04-08T15:40:11.429Z,3.27
2018-04-08T15:42:37.856Z,3.60
2018-04-08T15:45:04.252Z,3.30
2018-04-08T15:47:33.952Z,3.40
2018-04-08T15:50:01.824Z,4.20
2018-04-08T15:52:28.271Z,3.40
2018-04-08T15:54:54.670Z,3.90
2018-04-08T15:57:21.812Z,3.97
2018-04-08T15:59:48.350Z,2.90
2018-04-08T16:02:15.397Z,3.20
2018-04-08T16:04:42.243Z,2.93
2018-04-08T16:07:08.803Z,2.90
2018-04-08T16:09:35.359Z,2.80
2018-04-08T16:12:01.794Z,2.60
2018-04-08T16:14:28.229Z,2.80
2018-04-08T16:16:54.593Z,2.77
2018-04-08T16:19:21.339Z,3.10
2018-04-08T16:21:47.747Z,2.70
2018-04-08T16:24:14.517Z,2.63
2018-04-08T16:26:40.876Z,3.07
2018-04-08T16:29:08.382Z,2.73
2018-04-08T16:31:34.770Z,2.30
2018-04-08T16:34:01.956Z,2.50
2018-04-08T16:36:28.397Z,2.90
2018-04-08T16:38:54.749Z,2.33
2018-04-08T16:41:21.703Z,2.43
2018-04-08T16:43:48.062Z,2.20
2018-04-08T16:46:18.190Z,2.47
2018-04-08T16:48:44.566Z,2.20
2018-04-08T16:51:12.104Z,2.67
2018-04-08T16:53:38.432Z,2.70
2018-04-08T16:56:05.153Z,2.40
2018-04-08T16:58:31.524Z,2.20
2018-04-08T17:00:57.960Z,2.70
2018-04-08T17:03:24.316Z,2.40
2018-04-08T17:05:50.687Z,2.70
2018-04-08T17:08:17.794Z,2.60
2018-04-08T17:10:44.146Z,2.67
2018-04-08T17:13:10.523Z,2.93
2018-04-08T17:15:36.967Z,2.70
2018-04-08T17:18:03.472Z,2.30
2018-04-08T17:20:29.894Z,2.87
2018-04-08T17:22:56.868Z,2.47
2018-04-08T17:25:23.211Z,2.17
2018-04-08T17:27:49.753Z,2.50
2018-04-08T17:30:16.188Z,2.50
2018-04-08T17:32:42.846Z,2.50
2018-04-08T17:35:09.197Z,2.60
2018-04-08T17:37:36.895Z,2.43
2018-04-08T17:40:03.537Z,2.60
2018-04-08T17:42:29.938Z,2.30
2018-04-08T17:44:57.072Z,2.20
2018-04-08T17:47:23.530Z,2.33
2018-04-08T17:49:50.645Z,2.70
2018-04-08T17:52:17.091Z,2.50
2018-04-08T17:54:44.530Z,2.77
2018-04-08T17:57:11.020Z,4.63
2018-04-08T17:59:37.398Z,5.23
2018-04-08T18:02:03.813Z,7.03
2018-04-08T18:04:30.180Z,7.13
2018-04-08T18:06:56.523Z,7.67
2018-04-08T18:09:24.094Z,7.43
2018-04-08T18:11:50.825Z,7.57
2018-04-08T18:14:18.228Z,8.07
2018-04-08T18:16:44.628Z,8.27
2018-04-08T18:19:10.960Z,8.30
2018-04-08T18:21:38.962Z,9.17
2018-04-08T18:24:05.430Z,8.60
2018-04-08T18:26:31.834Z,9.30
2018-04-08T18:28:58.752Z,10.80
2018-04-08T18:31:25.080Z,11.90
2018-04-08T18:33:51.586Z,12.70
2018-04-08T18:36:17.926Z,12.40
2018-04-08T18:38:44.998Z,15.40
2018-04-08T18:41:11.330Z,13.90
2018-04-08T18:43:38.914Z,14.83
2018-04-08T18:46:05.581Z,14.97
2018-04-08T18:48:32.048Z,15.67
2018-04-08T18:50:58.409Z,14.47
2018-04-08T18:53:25.485Z,15.10
2018-04-08T18:55:51.820Z,17.33
2018-04-08T18:58:18.216Z,19.80
2018-04-08T19:00:44.536Z,21.90
2018-04-08T19:03:10.905Z,23.10
2018-04-08T19:05:37.260Z,25.67
2018-04-08T19:08:03.630Z,25.50
2018-04-08T19:10:30.984Z,25.87
2018-04-08T19:12:57.372Z,25.60
2018-04-08T19:15:23.769Z,26.97
2018-04-08T19:18:00.247Z,26.40
2018-04-08T19:20:26.613Z,27.27
2018-04-08T19:22:52.973Z,26.30
2018-04-08T19:25:20.057Z,27.50
2018-04-08T19:27:48.338Z,27.70
2018-04-08T19:30:19.801Z,27.77
2018-04-08T19:32:46.260Z,28.47
2018-04-08T19:35:12.722Z,28.50
2018-04-08T19:37:39.194Z,27.70
2018-04-08T19:40:05.622Z,28.40
2018-04-08T19:42:32.823Z,28.33
2018-04-08T19:45:00.043Z,28.00
2018-04-08T19:47:26.503Z,27.33
2018-04-08T19:49:52.939Z,27.90
2018-04-08T19:52:20.066Z,27.90
2018-04-08T19:54:46.494Z,27.27
2018-04-08T19:57:12.913Z,25.30
2018-04-08T19:59:39.321Z,26.00
2018-04-08T20:02:06.513Z,26.83
2018-04-08T20:04:33.014Z,26.70
2018-04-08T20:07:00.105Z,27.10
2018-04-08T20:09:26.556Z,26.83
2018-04-08T20:11:53.004Z,25.37
2018-04-08T20:14:20.126Z,25.90
2018-04-08T20:16:46.539Z,25.50
2018-04-08T20:19:12.942Z,25.90
2018-04-08T20:21:39.354Z,25.27
2018-04-08T20:24:05.778Z,25.97
2018-04-08T20:26:33.006Z,25.53
2018-04-08T20:28:59.430Z,25.90
2018-04-08T20:31:25.898Z,26.20
2018-04-08T20:33:53.131Z,27.90
2018-04-08T20:36:19.540Z,27.40
2018-04-08T20:38:46.013Z,29.10
2018-04-08T20:41:12.441Z,25.53
2018-04-08T20:43:38.835Z,27.50
2018-04-08T20:46:05.207Z,27.37
2018-04-08T20:48:31.647Z,27.23
2018-04-08T20:50:58.787Z,26.60
2018-04-08T20:53:25.253Z,26.13
2018-04-08T20:55:51.690Z,28.03
2018-04-08T20:58:18.127Z,27.53
2018-04-08T21:00:44.555Z,27.97
2018-04-08T21:03:10.949Z,27.33
2018-04-08T21:05:38.131Z,29.20
2018-04-08T21:08:05.284Z,32.23
2018-04-08T21:10:32.470Z,27.90
2018-04-08T21:12:58.974Z,27.97
2018-04-08T21:15:26.822Z,30.13
2018-04-08T21:17:53.260Z,28.27
2018-04-08T21:20:19.671Z,30.90
2018-04-08T21:22:46.102Z,29.47
2018-04-08T21:25:12.544Z,29.13
2018-04-08T21:27:38.989Z,27.50
2018-04-08T21:30:05.499Z,28.53
2018-04-08T21:32:31.962Z,30.17
2018-04-08T21:34:59.195Z,29.30
2018-04-08T21:37:25.658Z,27.00
2018-04-08T21:39:52.856Z,29.67
2018-04-08T21:42:19.279Z,30.87
2018-04-08T21:44:46.427Z,30.83
2018-04-08T21:47:13.599Z,29.87
2018-04-08T21:49:40.085Z,28.87
2018-04-08T21:52:06.501Z,30.07
2018-04-08T21:54:32.885Z,29.13
2018-04-08T21:56:59.338Z,28.83
2018-04-08T21:59:25.799Z,29.30
2018-04-08T22:01:52.297Z,27.53
2018-04-08T22:04:18.729Z,28.47
2018-04-08T22:06:48.703Z,29.00
2018-04-08T22:09:15.114Z,28.63
2018-04-08T22:11:42.288Z,29.47
2018-04-08T22:14:09.509Z,29.93
2018-04-08T22:16:35.919Z,29.97
2018-04-08T22:19:02.499Z,30.87
2018-04-08T22:21:29.691Z,29.07
2018-04-08T22:23:56.088Z,30.67
2018-04-08T22:26:22.614Z,29.37
2018-04-08T22:28:49.048Z,32.63
2018-04-08T22:31:15.509Z,31.00
2018-04-08T22:33:42.057Z,31.60
2018-04-08T22:36:08.477Z,32.33
2018-04-08T22:38:34.901Z,33.23
2018-04-08T22:41:02.076Z,32.87
2018-04-08T22:43:28.578Z,33.70
2018-04-08T22:45:55.697Z,32.37
2018-04-08T22:48:22.135Z,29.70
2018-04-08T22:50:48.600Z,31.03
2018-04-08T22:53:15.073Z,32.77
2018-04-08T22:55:41.493Z,32.70
2018-04-08T22:58:07.875Z,35.73
2018-04-08T23:00:34.289Z,31.90
2018-04-08T23:03:00.749Z,31.93
2018-04-08T23:05:27.163Z,31.73
2018-04-08T23:07:53.538Z,33.20
2018-04-08T23:10:20.024Z,30.97
2018-04-08T23:12:46.513Z,32.80
2018-04-08T23:15:12.905Z,31.97
2018-04-08T23:17:39.408Z,33.23
2018-04-08T23:20:05.891Z,34.37
2018-04-08T23:22:32.286Z,34.67
2018-04-08T23:24:58.737Z,35.07
2018-04-08T23:27:25.166Z,35.40
2018-04-08T23:29:51.639Z,39.37
2018-04-08T23:32:18.042Z,36.27
2018-04-08T23:34:44.509Z,40.33
2018-04-08T23:37:11.677Z,45.50
2018-04-08T23:39:38.099Z,45.60
2018-04-08T23:42:04.558Z,45.17
2018-04-08T23:44:30.995Z,47.23
2018-04-08T23:46:57.419Z,49.03
2018-04-08T23:49:23.783Z,50.73
2018-04-08T23:51:50.253Z,50.93
2018-04-08T23:54:17.451Z,54.70
2018-04-08T23:56:43.840Z,51.90
2018-04-08T23:59:10.962Z,53.60
